Hamilton, OH (45011)

3:11 AM EST on February 06, 2016 (GMT -0500)
APRSWXNET | | Change Station
CLOSE
Current Station
Personal Weather Station
Location: Hamilton, OH
Elevation: 587 ft
Nearby Weather Stations

Elev 587 ft 39.41 °N, 84.49 °W | Updated 24 minutes ago

Partly Cloudy
Partly Cloudy
27 °F
Feels Like 27 °F
N
0
Wind Variable Wind from WSW
Gusts 2.0 mph

Today
High -- | Low -- °F
--% Chance of Precip.
Yesterday
High -- | Low -- °F
Precip. -- in
Pressure 30.37 in
Visibility 8.0 miles
Clouds Clear
Windchill 27 °F
Dew Point 24 °F
Humidity 87%
Rainfall in
Snow Depth Not available.
7:40 AM 6:03 PM
Waning Crescent, 7% visible
METAR KHAO 060753Z AUTO 31003KT 8SM CLR M03/M04 A3035 RMK AO2 SLP282 T10331044
Pressure 30.37 in
Visibility 8.0 miles
Clouds Clear
Windchill 27 °F
Dew Point 24 °F
Humidity 87%
Rainfall in
Snow Depth Not available.
7:40 AM 6:03 PM
Waning Crescent, 7% visible
METAR KHAO 060753Z AUTO 31003KT 8SM CLR M03/M04 A3035 RMK AO2 SLP282 T10331044

10-Day Weather Forecast

Almanac

Astronomy

Feb. 06, 2016 Rise Set
Actual Time
Civil Twilight
Nautical Twilight
Astronomical Twilight
Moon
Length of Visible Light
Length of Day
Tomorrow will be .
, % of the Moon is Illuminated

Today's Extremes

State Highs State Lows

Community

WunderPhotos

Upload Photos

1,890,933 photos uploaded!

WunderBlog® & News

Nearby

Air Quality

  Air Quality AQ Index Pollutant
Not available.

Snow Depth

Station Depth Elevation

Earthquake Activity

City Distance Mag. Time & Date
Minimum magnitude displayed is 2.5.

Coastal Water Temperatures

Place Temperature

Stations

Nearby Weather Stations

Station Location Temp. Windchill Dew Point Humidity Wind Precip. Elev Updated Type
                   

Watches & Warnings

There are currently no watches in effect.